This is the latest recevied weather packets stored in our database for station/object KQ4TV-2. If no packets are shown the sender has not sent any weather packets the latest 10 day(s).
| Time | Temp. | Humidity | Pressure | Rain* | Wind** | Luminosity | Snow |
|---|---|---|---|---|---|---|---|
| 1787967034 | 25° C | 69% | - | 0 mm | - | - | - |
| 1787963771 | 26.67° C | 62% | - | 0 mm | - | - | - |
| 1787963650 | 26.67° C | 61% | - | 0 mm | - | - | - |
| 1787963166 | 27.22° C | 60% | - | 0 mm | - | - | - |
| 1787962441 | 27.78° C | 58% | - | 0 mm | - | - | - |
| 1787962200 | 28.33° C | 57% | - | 0 mm | - | - | - |
| 1787961958 | 28.33° C | 57% | - | 0 mm | - | - | - |
| 1787960266 | 30.56° C | 51% | - | 0 mm | - | - | - |
| 1787959783 | 31.11° C | 49% | - | 0 mm | - | - | - |
| 1787959541 | 31.11° C | 48% | - | 0 mm | - | - | - |
| 1787959057 | 31.67° C | 48% | - | 0 mm | - | - | - |
| 1787957970 | 31.11° C | 48% | - | 0 mm | - | - | - |
| 1787955069 | 32.22° C | 45% | - | 0 mm | - | - | - |
| 1787954949 | 32.22° C | 45% | - | 0 mm | - | - | - |
| 1787953740 | 32.22° C | 46% | - | 0 mm | - | - | - |
| 1787939721 | 30° C | 52% | - | 0 mm | - | - | - |
| 1787936942 | 29.44° C | 58% | - | 0 mm | - | - | - |
| 1787929570 | 27.78° C | 73% | - | 0 mm | - | - | - |
| 1787926250 | 26.67° C | 78% | - | 0 mm | - | - | - |
| 1787926217 | 26.67° C | 78% | - | 0 mm | - | - | - |
| 1787926186 | 26.67° C | 78% | - | 0 mm | - | - | - |
| 1787917001 | 20.56° C | 96% | - | 0 mm | - | - | - |
| 1787912382 | 21.11° C | 96% | - | 0 mm | - | - | - |
| 1787912282 | 21.11° C | 96% | - | 0 mm | - | - | - |
| 1787912167 | 21.11° C | 96% | - | 0 mm | - | - | - |
* Rain since midnight (hover to see other rain measurements)
** Current wind speed in m/s (hover to see current wind gust speed)